Ana Sayfa
METAR-TAF:

METAR-TAF

Havaalanları :

Orange_County_Airport

Orange, Teksas, Amerika Birleşik Devletleri

Enlem: 30-04-09N, Boylam: 093-48-13W, yükseklik: 4 m

Güncel hava durumu gözlemi

Rapor saat 06:15 UTC de 22 dakika önce yapıldı.
Sakin rüzgar
Sıcaklık 25°C
Nem 94%
Basınç 1016 hPa
Görüş mesafesi: 16.1 km
Açık gökyüzü

METAR: KORG 160615Z AUTO 00000KT 10SM CLR 25/24 A3000 RMK AO2 T02520237

Saat: 01:37 (06:37 UTC)


TAF: eksik

4.000'den fazla havaalanı için hava durumu gözlemleri ve tahminleri (METAR ve TAF raporları).

Kullanılabilir istasyonlar harita üzerinde sarı ve kırmızı noktalarla gösterilir.

İstasyonun adını görmek için fareyi noktanın üzerinde gezdirin.

Sonrasında hava gözlem ve tahminlerini görmek için tıklayın.

Haritayı değiştirmek için: yaklaştırmak için siyah artı işaretli yeşil düğmeye ve uzaklaştırmak için de eksi işaretli düğmeye hızla tıklayın; bitişik haritalar için yeşil okları kullanın.


METAR-TAF: